Time;durP1;ratioP1;P1;durP2;ratioP2;P2;SDS_P1;SDS_P2;PMS_P1;PMS_P2;Temp;Humidity;BMP_temperature;BMP_pressure;BME280_temperature;BME280_humidity;BME280_pressure;Samples;Min_cycle;Max_cycle;Signal;HPM_P1;HPM_P2
2022/06/15 00:01:27;;;;;;;2.92;0.80;;;;;;;17.97;52.31;99259.06;5135370;27;20042;-69
2022/06/15 00:04:13;;;;;;;1.52;0.70;;;;;;;18.02;52.97;99261.28;5122462;27;20072;-70
2022/06/15 00:06:58;;;;;;;1.65;0.63;;;;;;;18.22;52.68;99258.63;5119346;27;20062;-68
2022/06/15 00:09:42;;;;;;;1.05;0.60;;;;;;;18.26;52.49;99262.69;5117648;27;20104;-69
2022/06/15 00:12:27;;;;;;;1.05;0.75;;;;;;;17.96;50.85;99260.06;5117801;27;20027;-69
2022/06/15 00:15:13;;;;;;;2.40;0.80;;;;;;;17.97;51.85;99264.34;5127548;27;20480;-68
2022/06/15 00:17:57;;;;;;;1.27;0.70;;;;;;;17.82;50.76;99263.13;5132832;27;20115;-69
2022/06/15 00:20:42;;;;;;;1.15;0.80;;;;;;;17.91;53.13;99250.84;5135359;27;20038;-70
2022/06/15 00:23:29;;;;;;;1.20;0.80;;;;;;;18.08;53.26;99252.75;5148336;27;20077;-70
2022/06/15 00:26:14;;;;;;;2.97;0.80;;;;;;;18.30;50.07;99257.91;5136061;27;20462;-69
2022/06/15 00:28:59;;;;;;;1.05;0.80;;;;;;;18.19;52.73;99254.47;5104902;27;20423;-69
2022/06/15 00:31:44;;;;;;;2.50;0.68;;;;;;;17.93;53.08;99256.84;5105375;27;20498;-69
2022/06/15 00:34:28;;;;;;;2.40;1.52;;;;;;;18.13;51.03;99257.69;5134608;27;20045;-69
2022/06/15 00:37:13;;;;;;;1.88;0.77;;;;;;;18.25;53.13;99257.53;5134552;27;20059;-69
2022/06/15 00:39:58;;;;;;;1.65;0.65;;;;;;;18.20;52.33;99263.22;5134739;27;20035;-70
2022/06/15 00:42:43;;;;;;;1.85;0.70;;;;;;;18.06;52.50;99252.09;5110632;27;20070;-69
2022/06/15 00:45:29;;;;;;;1.23;0.65;;;;;;;18.14;51.76;99248.75;5134777;27;20035;-71
2022/06/15 00:48:14;;;;;;;2.10;0.70;;;;;;;18.31;53.27;99255.13;5134635;27;20066;-69
2022/06/15 00:50:58;;;;;;;1.35;0.60;;;;;;;18.54;53.19;99249.47;5134565;27;20042;-69
2022/06/15 00:53:44;;;;;;;5.03;0.80;;;;;;;18.43;52.14;99242.53;5115972;27;20051;-69
2022/06/15 00:56:30;;;;;;;1.05;0.80;;;;;;;18.34;51.68;99241.56;5134552;27;20031;-69
2022/06/15 00:59:24;;;;;;;1.80;0.80;;;;;;;18.32;51.26;99243.53;5135061;27;20115;-68
2022/06/15 01:02:08;;;;;;;1.80;0.77;;;;;;;18.20;52.65;99242.03;5118942;27;20036;-69
2022/06/15 01:04:56;;;;;;;4.22;0.70;;;;;;;18.33;52.05;99242.56;5134122;27;20048;-71
2022/06/15 01:07:52;;;;;;;1.55;0.65;;;;;;;18.51;51.97;99239.13;5115868;27;20051;-69
2022/06/15 01:10:45;;;;;;;2.63;0.60;;;;;;;18.39;52.09;99243.81;5117635;27;20101;-69
2022/06/15 01:13:48;;;;;;;1.05;0.57;;;;;;;18.23;52.56;99239.09;5112360;27;20153;-69
2022/06/15 01:16:44;;;;;;;1.40;0.70;;;;;;;18.21;51.37;99236.56;5132378;27;20046;-69
2022/06/15 01:19:44;;;;;;;0.80;0.60;;;;;;;18.34;51.46;99244.22;5118704;27;20122;-70
2022/06/15 01:23:06;;;;;;;2.33;0.70;;;;;;;18.28;50.14;99241.34;5121808;27;20031;-69
2022/06/15 01:26:17;;;;;;;1.92;0.60;;;;;;;18.27;53.22;99244.94;5134073;27;20062;-70
2022/06/15 01:29:20;;;;;;;1.52;0.68;;;;;;;18.53;50.21;99239.84;5111940;28;20462;-69
2022/06/15 01:32:13;;;;;;;1.30;0.73;;;;;;;18.40;50.25;99236.66;5114785;27;20043;-70
2022/06/15 01:35:05;;;;;;;0.95;0.60;;;;;;;18.42;52.77;99235.56;5133512;27;20400;-70
2022/06/15 01:37:59;;;;;;;2.55;0.70;;;;;;;18.28;49.76;99238.69;5122113;27;20386;-69
2022/06/15 01:40:50;;;;;;;1.38;0.50;;;;;;;18.68;51.69;99236.72;5132698;27;20059;-70
2022/06/15 01:43:44;;;;;;;2.70;0.50;;;;;;;18.65;51.37;99232.53;5133827;27;20046;-69
2022/06/15 01:46:29;;;;;;;2.47;0.63;;;;;;;18.41;48.81;99233.06;5118372;27;20046;-70
2022/06/15 01:49:22;;;;;;;2.17;0.85;;;;;;;18.37;51.86;99234.31;5117702;27;20035;-70
2022/06/15 01:52:11;;;;;;;0.68;0.55;;;;;;;18.54;51.23;99228.25;5117492;27;20034;-70
2022/06/15 01:55:07;;;;;;;0.90;0.60;;;;;;;18.53;51.58;99233.69;5106686;27;20118;-69
2022/06/15 01:57:55;;;;;;;1.67;0.80;;;;;;;18.59;52.26;99231.28;5132966;27;20080;-69
2022/06/15 02:00:41;;;;;;;1.65;0.73;;;;;;;18.54;51.20;99227.44;5077002;28;20031;-69
2022/06/15 02:03:35;;;;;;;1.05;0.57;;;;;;;18.39;52.29;99232.34;5091454;27;20035;-68
2022/06/15 02:06:45;;;;;;;1.42;0.55;;;;;;;18.65;52.65;99231.69;5116995;27;20043;-69
2022/06/15 02:09:40;;;;;;;1.33;0.65;;;;;;;18.55;52.08;99237.88;5102605;27;20421;-68
2022/06/15 02:12:55;;;;;;;2.88;0.40;;;;;;;18.33;48.91;99234.59;5096674;28;20035;-69
2022/06/15 02:15:46;;;;;;;0.88;0.40;;;;;;;18.17;51.45;99232.56;5098903;28;20063;-69
2022/06/15 02:18:34;;;;;;;1.42;0.55;;;;;;;18.09;52.89;99232.41;5115640;27;20059;-68
2022/06/15 02:21:23;;;;;;;2.53;0.70;;;;;;;17.93;52.09;99227.69;5117101;27;20047;-69
2022/06/15 02:24:14;;;;;;;0.95;0.63;;;;;;;18.08;50.59;99226.25;5109801;27;20047;-70
2022/06/15 02:27:02;;;;;;;1.02;0.60;;;;;;;17.98;51.78;99230.75;5118533;27;20050;-69
2022/06/15 02:29:52;;;;;;;3.90;0.70;;;;;;;18.36;51.60;99227.34;5080722;27;20081;-70
2022/06/15 02:32:37;;;;;;;1.30;0.70;;;;;;;18.39;49.90;99222.59;5088295;27;20042;-70
2022/06/15 02:35:22;;;;;;;2.70;0.63;;;;;;;18.28;50.47;99226.25;5117120;27;20115;-71
2022/06/15 02:38:10;;;;;;;1.35;0.50;;;;;;;18.21;49.99;99231.28;5096525;28;20039;-70
2022/06/15 02:40:56;;;;;;;4.18;0.60;;;;;;;18.23;51.36;99233.78;5113215;27;20458;-69
2022/06/15 02:43:42;;;;;;;2.58;0.73;;;;;;;18.21;53.63;99230.47;5116970;27;20070;-70
2022/06/15 02:46:31;;;;;;;1.40;0.63;;;;;;;18.38;51.98;99236.00;5103220;27;20049;-69
2022/06/15 02:49:15;;;;;;;2.72;0.80;;;;;;;18.19;50.70;99237.72;5116139;27;20043;-69
2022/06/15 02:52:05;;;;;;;1.08;0.60;;;;;;;18.05;51.86;99237.13;5116829;27;20035;-69
2022/06/15 02:54:54;;;;;;;1.52;0.80;;;;;;;18.01;49.95;99232.28;5131369;27;20065;-69
2022/06/15 02:57:47;;;;;;;1.55;0.75;;;;;;;18.08;50.80;99236.03;5116428;28;20086;-70
2022/06/15 03:00:34;;;;;;;0.93;0.40;;;;;;;17.76;50.13;99230.06;5113221;27;20053;-70
2022/06/15 03:03:22;;;;;;;2.13;0.70;;;;;;;17.76;50.35;99235.38;5115837;27;20039;-70
2022/06/15 03:06:18;;;;;;;2.03;0.85;;;;;;;17.74;53.48;99242.59;5098008;28;20535;-70
2022/06/15 03:09:05;;;;;;;3.10;0.90;;;;;;;17.82;51.59;99233.97;5115740;28;20042;-74
2022/06/15 03:12:00;;;;;;;0.93;0.63;;;;;;;17.63;52.86;99245.44;5109216;28;20434;-70
2022/06/15 03:14:51;;;;;;;0.90;0.70;;;;;;;17.75;51.42;99238.16;5100742;28;20292;-69
2022/06/15 03:17:38;;;;;;;1.48;0.70;;;;;;;18.00;52.64;99246.50;5129469;27;20043;-70
2022/06/15 03:20:26;;;;;;;1.77;0.95;;;;;;;17.68;51.53;99245.81;5105674;27;20114;-71
2022/06/15 03:23:16;;;;;;;1.15;0.80;;;;;;;17.49;51.94;99250.16;5119921;27;20035;-69
2022/06/15 03:26:03;;;;;;;1.00;0.70;;;;;;;17.59;54.68;99248.34;5112418;28;20496;-69
2022/06/15 03:28:53;;;;;;;2.83;0.80;;;;;;;18.14;54.13;99251.41;5110383;27;20039;-69
2022/06/15 03:31:38;;;;;;;0.88;0.70;;;;;;;18.50;52.12;99248.09;5120549;27;20064;-69
2022/06/15 03:34:22;;;;;;;1.95;0.70;;;;;;;17.91;51.57;99243.72;5110160;27;20474;-69
2022/06/15 03:37:07;;;;;;;2.15;0.70;;;;;;;17.33;54.34;99246.22;5106006;27;20084;-69
2022/06/15 03:39:54;;;;;;;1.95;0.82;;;;;;;17.38;53.17;99251.13;5107794;28;20048;-69
2022/06/15 03:42:42;;;;;;;1.85;0.55;;;;;;;17.81;53.40;99253.50;5108832;27;20106;-69
2022/06/15 03:45:30;;;;;;;2.58;1.00;;;;;;;18.00;52.29;99246.50;5119998;27;20385;-68
2022/06/15 03:48:15;;;;;;;1.42;0.75;;;;;;;18.12;53.07;99255.13;5120621;27;20365;-68
2022/06/15 03:51:03;;;;;;;0.85;0.65;;;;;;;18.14;51.24;99246.09;5119448;27;20054;-69
2022/06/15 03:53:53;;;;;;;2.08;0.88;;;;;;;17.45;52.79;99252.25;5120024;27;20039;-70
2022/06/15 03:56:42;;;;;;;3.50;0.70;;;;;;;17.82;54.08;99247.22;5097422;28;20032;-70
2022/06/15 03:59:30;;;;;;;1.90;0.80;;;;;;;17.28;52.76;99248.47;5118532;27;20041;-69
2022/06/15 04:02:20;;;;;;;2.45;0.80;;;;;;;17.08;54.95;99252.84;5119798;27;20067;-69
2022/06/15 04:05:09;;;;;;;1.02;0.65;;;;;;;17.88;55.11;99248.47;5096392;27;20055;-68
2022/06/15 04:10:59;;;;;;;1.48;0.75;;;;;;;17.40;57.40;99253.63;5119038;27;20125;-69
2022/06/15 04:13:44;;;;;;;2.15;1.27;;;;;;;17.26;58.38;99246.91;5119626;27;20064;-69
2022/06/15 04:16:29;;;;;;;2.60;1.20;;;;;;;17.12;59.00;99251.63;5117472;27;20389;-68
2022/06/15 04:19:14;;;;;;;1.77;1.33;;;;;;;16.77;56.13;99255.53;5116994;27;20038;-69
2022/06/15 04:22:01;;;;;;;2.10;1.00;;;;;;;17.58;57.75;99251.97;5105320;27;20551;-69
2022/06/15 04:24:46;;;;;;;2.30;1.40;;;;;;;17.78;56.32;99259.06;5130560;27;20027;-69
2022/06/15 04:27:32;;;;;;;2.30;1.45;;;;;;;17.69;57.54;99258.13;5126613;27;20049;-68
2022/06/15 04:30:18;;;;;;;2.38;1.38;;;;;;;17.50;58.83;99257.13;5119535;27;20046;-69
2022/06/15 04:33:09;;;;;;;2.63;1.38;;;;;;;17.82;56.60;99258.66;5107512;27;20157;-69
2022/06/15 04:35:54;;;;;;;1.63;1.00;;;;;;;17.10;57.29;99261.53;5121976;27;20065;-68
2022/06/15 04:38:41;;;;;;;2.25;1.30;;;;;;;17.42;55.77;99262.25;5120190;27;20039;-68
2022/06/15 04:41:28;;;;;;;3.90;1.23;;;;;;;18.07;54.59;99261.69;5099585;28;20387;-68
2022/06/15 04:44:12;;;;;;;3.13;0.90;;;;;;;17.13;56.54;99268.34;5114319;27;20118;-69
2022/06/15 04:47:01;;;;;;;4.72;1.20;;;;;;;16.81;55.45;99275.47;5119954;27;20035;-69
2022/06/15 04:49:45;;;;;;;1.85;0.90;;;;;;;17.59;56.73;99266.88;5113941;27;20039;-67
2022/06/15 04:52:32;;;;;;;2.80;1.20;;;;;;;17.88;55.76;99262.56;5113068;27;20031;-67
2022/06/15 04:55:21;;;;;;;3.65;0.90;;;;;;;17.98;52.43;99268.66;5093432;27;20039;-69
2022/06/15 04:58:06;;;;;;;2.28;0.95;;;;;;;17.60;54.83;99265.06;5087702;27;20046;-67
2022/06/15 05:00:54;;;;;;;3.42;1.13;;;;;;;17.23;53.67;99271.88;5104641;27;20055;-69
2022/06/15 05:03:40;;;;;;;2.33;1.15;;;;;;;16.63;56.19;99273.41;5119688;27;20510;-69
2022/06/15 05:06:32;;;;;;;7.82;1.02;;;;;;;17.40;54.69;99266.88;5119446;27;20043;-69
2022/06/15 05:09:17;;;;;;;3.92;1.20;;;;;;;16.89;54.05;99277.44;5100570;28;20040;-69
2022/06/15 05:12:06;;;;;;;3.00;1.55;;;;;;;17.01;53.74;99276.38;5103187;27;20520;-72
2022/06/15 05:14:56;;;;;;;2.70;1.20;;;;;;;16.93;53.33;99276.19;5119206;27;20060;-69
2022/06/15 05:17:44;;;;;;;6.30;2.03;;;;;;;16.65;54.09;99274.13;5116344;27;20474;-69
2022/06/15 05:20:40;;;;;;;3.08;1.10;;;;;;;16.96;54.74;99275.91;5117963;27;20077;-71
2022/06/15 05:23:28;;;;;;;3.30;1.10;;;;;;;16.99;54.45;99278.28;5118401;27;20468;-70
2022/06/15 05:26:25;;;;;;;8.65;2.58;;;;;;;17.72;53.17;99269.25;5118511;27;20478;-68
2022/06/15 05:29:11;;;;;;;2.10;1.08;;;;;;;17.34;51.78;99270.91;5104369;27;20110;-70
2022/06/15 05:31:56;;;;;;;1.85;1.00;;;;;;;17.05;52.62;99272.50;5117314;27;20058;-69
2022/06/15 05:34:42;;;;;;;3.33;1.00;;;;;;;17.28;52.31;99279.41;5117835;27;20506;-72
2022/06/15 05:37:30;;;;;;;2.13;1.00;;;;;;;17.31;51.83;99281.75;5110969;27;20112;-71
2022/06/15 05:40:16;;;;;;;1.42;0.98;;;;;;;17.37;51.05;99275.91;5101585;27;20050;-70
2022/06/15 05:43:02;;;;;;;3.60;1.70;;;;;;;17.79;51.38;99274.00;5103892;27;20067;-69
2022/06/15 05:45:50;;;;;;;6.30;1.77;;;;;;;17.60;51.12;99276.50;5104474;27;20031;-70
2022/06/15 05:48:35;;;;;;;4.60;1.30;;;;;;;17.67;51.60;99268.00;5117918;27;20043;-69
2022/06/15 05:51:23;;;;;;;2.50;1.25;;;;;;;17.43;51.52;99275.38;5087406;27;20080;-71
2022/06/15 05:54:08;;;;;;;2.35;1.00;;;;;;;17.47;51.83;99279.44;5111434;27;20046;-71
2022/06/15 05:56:53;;;;;;;4.97;1.48;;;;;;;17.53;51.59;99277.22;5122608;27;20042;-70
2022/06/15 05:59:38;;;;;;;5.05;2.08;;;;;;;17.85;51.17;99271.63;5117715;27;20061;-67
2022/06/15 06:02:25;;;;;;;4.20;1.20;;;;;;;17.96;50.61;99270.66;5132372;27;20482;-68
2022/06/15 06:05:10;;;;;;;2.20;1.15;;;;;;;17.66;51.20;99271.63;5122769;27;20035;-70
2022/06/15 06:07:56;;;;;;;3.15;1.00;;;;;;;17.68;51.54;99275.81;5132200;27;20069;-72
2022/06/15 06:10:41;;;;;;;1.90;0.90;;;;;;;17.79;52.07;99284.59;5134566;27;20042;-69
2022/06/15 06:13:26;;;;;;;5.93;1.35;;;;;;;17.66;52.21;99284.88;5131715;27;20043;-69
2022/06/15 06:16:11;;;;;;;4.15;1.40;;;;;;;17.49;52.82;99281.94;5127017;27;20043;-72
2022/06/15 06:18:56;;;;;;;5.13;2.42;;;;;;;17.69;52.21;99285.41;5120766;27;20031;-70
2022/06/15 06:21:43;;;;;;;5.68;2.30;;;;;;;17.81;51.46;99291.44;5131375;27;20035;-67
2022/06/15 06:24:28;;;;;;;3.53;1.73;;;;;;;17.94;52.07;99298.25;5132536;27;20055;-69
2022/06/15 06:27:15;;;;;;;4.45;1.50;;;;;;;18.44;50.80;99297.22;5131204;27;20054;-69
2022/06/15 06:29:59;;;;;;;4.95;1.35;;;;;;;18.40;51.46;99300.31;5132685;27;20118;-70
2022/06/15 06:32:45;;;;;;;3.38;1.40;;;;;;;18.93;49.90;99298.88;5116610;27;20035;-71
2022/06/15 06:35:29;;;;;;;5.85;1.50;;;;;;;19.45;48.51;99302.81;5131570;27;20501;-75
2022/06/15 06:38:14;;;;;;;3.35;1.42;;;;;;;19.57;47.94;99295.47;5105075;27;20047;-72
2022/06/15 06:41:00;;;;;;;3.95;1.38;;;;;;;19.65;47.90;99302.69;5114724;27;20125;-72
2022/06/15 06:43:45;;;;;;;3.35;1.52;;;;;;;19.98;47.46;99299.47;5115409;27;20057;-70
2022/06/15 06:46:33;;;;;;;4.32;2.00;;;;;;;19.48;48.74;99298.19;5131127;27;20039;-69
2022/06/15 06:49:20;;;;;;;3.10;1.30;;;;;;;20.09;47.42;99298.44;5116293;28;20031;-69
2022/06/15 06:52:07;;;;;;;2.85;1.60;;;;;;;20.30;46.01;99299.94;5130786;27;20035;-69
2022/06/15 06:54:52;;;;;;;1.75;1.60;;;;;;;20.01;45.41;99303.69;5116229;27;20110;-69
2022/06/15 06:57:37;;;;;;;5.20;1.75;;;;;;;20.63;44.56;99304.63;5108821;27;20478;-68
2022/06/15 07:00:23;;;;;;;8.73;1.80;;;;;;;20.39;44.96;99295.47;5116358;27;20058;-69
2022/06/15 07:03:08;;;;;;;7.82;3.58;;;;;;;20.87;44.67;99298.59;5119189;27;20035;-69
2022/06/15 07:05:59;;;;;;;11.70;3.88;;;;;;;20.23;45.31;99286.41;5116496;28;20410;-69
2022/06/15 07:08:44;;;;;;;7.85;2.20;;;;;;;20.57;45.51;99295.44;5124575;28;20038;-70
2022/06/15 07:11:29;;;;;;;5.60;1.40;;;;;;;20.90;44.16;99292.09;5088274;28;20042;-69
2022/06/15 07:14:14;;;;;;;5.15;1.45;;;;;;;21.10;43.54;99292.72;5103656;28;20396;-69
2022/06/15 07:17:00;;;;;;;3.63;1.20;;;;;;;21.89;42.79;99285.38;5121959;28;20039;-69
2022/06/15 07:19:44;;;;;;;2.72;1.70;;;;;;;20.91;43.22;99288.44;5131476;28;20043;-69
2022/06/15 07:22:29;;;;;;;2.47;1.20;;;;;;;21.62;41.89;99280.19;5119865;28;20054;-69
2022/06/15 07:25:14;;;;;;;3.42;1.42;;;;;;;21.32;42.79;99293.09;5131362;28;20043;-69
2022/06/15 07:27:59;;;;;;;3.72;1.20;;;;;;;21.78;41.25;99286.53;5131590;28;20042;-70
2022/06/15 07:30:43;;;;;;;3.70;1.20;;;;;;;21.56;41.46;99286.16;5131917;28;20130;-70
2022/06/15 07:33:29;;;;;;;1.95;1.20;;;;;;;22.41;41.10;99280.66;5131385;28;20035;-69
2022/06/15 07:36:13;;;;;;;3.35;1.02;;;;;;;22.62;39.69;99281.97;5132236;28;20046;-70
2022/06/15 07:38:58;;;;;;;6.60;1.25;;;;;;;22.36;40.19;99283.03;5131154;27;20031;-69
2022/06/15 07:41:45;;;;;;;2.38;1.23;;;;;;;22.80;39.84;99286.25;5116663;28;20050;-70
2022/06/15 07:44:30;;;;;;;3.75;1.50;;;;;;;22.79;40.06;99287.25;5118243;28;20027;-70
2022/06/15 07:50:17;;;;;;;5.47;1.70;;;;;;;22.22;40.93;99279.19;5132149;28;20088;-68
2022/06/15 07:53:06;;;;;;;1.83;1.30;;;;;;;22.25;39.97;99279.69;5118724;28;20035;-69
2022/06/15 07:55:53;;;;;;;6.30;1.60;;;;;;;22.36;41.42;99278.50;5131279;28;20134;-68
2022/06/15 07:58:39;;;;;;;2.83;1.50;;;;;;;23.05;40.66;99275.44;5112263;28;20064;-68
2022/06/15 08:01:25;;;;;;;1.33;1.08;;;;;;;22.84;40.80;99276.88;5132203;28;20047;-69
2022/06/15 08:04:10;;;;;;;6.57;2.63;;;;;;;23.01;40.83;99273.13;5116584;27;20130;-69
2022/06/15 08:06:56;;;;;;;2.65;1.50;;;;;;;23.33;40.76;99286.50;5135360;27;20051;-69
2022/06/15 08:09:41;;;;;;;4.57;1.50;;;;;;;22.63;42.13;99281.81;5144301;27;20035;-70
2022/06/15 08:12:27;;;;;;;7.18;1.60;;;;;;;23.86;39.84;99277.78;5138404;27;20039;-69
2022/06/15 08:15:12;;;;;;;2.90;1.85;;;;;;;23.32;40.51;99278.66;5119949;27;20054;-68
2022/06/15 08:18:03;;;;;;;3.47;1.80;;;;;;;23.23;40.99;99284.06;5134793;27;20039;-68
2022/06/15 08:20:55;;;;;;;2.67;2.08;;;;;;;22.87;41.85;99273.88;5135497;27;20453;-67
2022/06/15 08:23:43;;;;;;;4.40;1.80;;;;;;;23.76;41.37;99271.88;5119035;27;20031;-68
2022/06/15 08:26:34;;;;;;;4.65;1.90;;;;;;;24.84;39.07;99286.88;5135425;27;20039;-68
2022/06/15 08:29:19;;;;;;;5.35;2.70;;;;;;;24.14;39.96;99271.03;5099362;28;20075;-70
2022/06/15 08:32:05;;;;;;;3.42;1.42;;;;;;;23.71;40.17;99283.13;5115794;27;20143;-70
2022/06/15 08:34:50;;;;;;;7.63;1.65;;;;;;;24.28;39.23;99272.13;5102780;27;20046;-68
2022/06/15 08:37:36;;;;;;;3.55;1.30;;;;;;;25.06;38.91;99270.06;5120968;27;20244;-67
2022/06/15 08:40:21;;;;;;;5.88;1.92;;;;;;;24.85;38.82;99264.44;5134677;27;20035;-69
2022/06/15 08:43:26;;;;;;;4.85;1.75;;;;;;;24.06;39.78;99263.06;5135134;27;20072;-69
2022/06/15 08:46:20;;;;;;;2.33;1.20;;;;;;;24.89;38.55;99270.25;5135414;27;20134;-68
2022/06/15 08:49:16;;;;;;;2.75;1.88;;;;;;;24.90;38.46;99266.59;5118797;27;20039;-71
2022/06/15 08:52:14;;;;;;;2.42;1.35;;;;;;;25.33;38.42;99268.50;5123279;27;20124;-70
2022/06/15 08:55:22;;;;;;;4.22;1.58;;;;;;;26.05;36.69;99262.38;5123461;27;20039;-69
2022/06/15 08:58:25;;;;;;;4.78;1.85;;;;;;;25.04;38.58;99272.09;5134303;27;20031;-69
2022/06/15 09:01:41;;;;;;;5.13;1.35;;;;;;;24.69;38.35;99275.34;5116786;27;20378;-69
2022/06/15 09:04:46;;;;;;;3.40;1.20;;;;;;;25.83;37.30;99272.31;5120760;27;20043;-68
2022/06/15 09:07:45;;;;;;;2.70;1.40;;;;;;;25.84;37.64;99260.56;5134754;27;20055;-70
2022/06/15 09:10:48;;;;;;;4.07;1.30;;;;;;;26.57;36.47;99264.78;5125439;27;20126;-69
2022/06/15 09:14:00;;;;;;;1.88;1.02;;;;;;;26.07;36.98;99259.50;5122015;27;20454;-69
2022/06/15 09:17:14;;;;;;;6.82;1.20;;;;;;;25.81;38.33;99259.09;5134332;27;20051;-69
2022/06/15 09:20:04;;;;;;;3.08;1.35;;;;;;;25.59;37.92;99260.94;5128711;27;20035;-70
2022/06/15 09:22:57;;;;;;;4.40;1.33;;;;;;;26.76;36.26;99251.66;5134107;27;20058;-68
2022/06/15 09:25:50;;;;;;;3.70;1.77;;;;;;;26.84;36.52;99264.09;5119424;27;20050;-69
2022/06/15 09:29:23;;;;;;;3.00;1.23;;;;;;;27.29;35.71;99258.25;5134173;27;20042;-69
2022/06/15 09:32:22;;;;;;;5.72;1.40;;;;;;;27.53;35.24;99257.91;5125909;27;20054;-69
2022/06/15 09:35:10;;;;;;;2.58;1.30;;;;;;;27.06;35.85;99258.63;5119351;27;20493;-69
2022/06/15 09:37:58;;;;;;;3.38;1.42;;;;;;;26.59;36.38;99258.41;5122213;27;20045;-69
2022/06/15 09:40:54;;;;;;;5.57;1.63;;;;;;;27.03;36.28;99264.38;5133872;27;20078;-69
2022/06/15 09:43:50;;;;;;;2.10;1.30;;;;;;;26.68;36.18;99260.72;5133228;27;20037;-70
2022/06/15 09:46:35;;;;;;;4.65;1.60;;;;;;;26.91;35.99;99254.19;5123581;27;20031;-69
2022/06/15 09:49:59;;;;;;;3.45;1.50;;;;;;;26.59;36.78;99261.09;5133355;27;20056;-68
2022/06/15 09:53:01;;;;;;;2.45;1.60;;;;;;;26.40;37.33;99252.72;5119977;27;20055;-68
2022/06/15 09:55:51;;;;;;;2.90;1.10;;;;;;;27.80;35.31;99249.88;5117657;27;20498;-74
2022/06/15 09:58:43;;;;;;;5.38;1.30;;;;;;;26.55;36.68;99249.91;5124429;27;20035;-68
2022/06/15 10:01:33;;;;;;;4.15;1.17;;;;;;;25.88;38.63;99251.09;5132268;27;20462;-69
2022/06/15 10:04:29;;;;;;;2.22;1.30;;;;;;;26.28;37.68;99244.34;5132440;27;20051;-69
2022/06/15 10:07:21;;;;;;;1.98;1.20;;;;;;;26.71;37.18;99240.69;5111205;27;20065;-69
2022/06/15 10:10:18;;;;;;;6.00;1.45;;;;;;;27.60;36.16;99236.41;5121100;27;20757;-69
2022/06/15 10:13:23;;;;;;;3.67;1.48;;;;;;;27.18;36.98;99238.19;5135074;27;20118;-69
2022/06/15 10:16:15;;;;;;;4.80;1.20;;;;;;;27.40;36.69;99246.06;5133707;27;20054;-69
2022/06/15 10:19:08;;;;;;;2.38;1.15;;;;;;;27.75;35.96;99238.88;5122746;27;20047;-68
2022/06/15 10:21:57;;;;;;;4.28;1.30;;;;;;;27.34;36.86;99233.44;5132775;27;20039;-69
2022/06/15 10:24:43;;;;;;;5.38;1.25;;;;;;;28.07;36.12;99238.25;5116159;27;20042;-73
2022/06/15 10:27:36;;;;;;;2.10;1.38;;;;;;;28.60;35.06;99225.72;5133073;27;20050;-71
2022/06/15 10:30:23;;;;;;;1.92;1.30;;;;;;;29.63;34.49;99228.50;5130087;27;20359;-71
2022/06/15 10:33:19;;;;;;;6.97;1.45;;;;;;;28.44;34.87;99227.84;5132482;27;20042;-70
2022/06/15 10:36:15;;;;;;;6.93;1.50;;;;;;;28.86;35.05;99219.38;5117130;27;20054;-70
2022/06/15 10:39:12;;;;;;;6.18;1.75;;;;;;;27.66;36.28;99219.44;5121117;27;20042;-71
2022/06/15 10:42:09;;;;;;;3.88;1.55;;;;;;;27.60;36.79;99217.56;5132680;27;20489;-72
2022/06/15 10:45:08;;;;;;;3.67;1.27;;;;;;;28.10;35.72;99219.84;5133314;27;20501;-74
2022/06/15 10:48:00;;;;;;;2.60;1.50;;;;;;;29.44;33.55;99215.97;5117208;27;20474;-74
2022/06/15 10:51:05;;;;;;;5.38;1.55;;;;;;;28.57;34.35;99207.28;5118898;28;20042;-74
2022/06/15 10:54:11;;;;;;;5.35;1.48;;;;;;;28.00;35.45;99205.97;5117459;28;20031;-73
2022/06/15 11:03:32;;;;;;;2.17;0.93;;;;;;;30.33;33.77;99197.94;5117436;27;20058;-73
2022/06/15 11:06:16;;;;;;;2.35;1.13;;;;;;;28.29;34.82;99201.13;5117658;28;20063;-73
2022/06/15 11:09:01;;;;;;;2.60;1.38;;;;;;;29.01;33.19;99200.28;5106851;28;20416;-73
2022/06/15 11:11:46;;;;;;;2.17;1.20;;;;;;;29.85;32.24;99198.41;5113519;28;20043;-73
2022/06/15 11:15:03;;;;;;;6.03;2.38;;;;;;;29.53;33.39;99198.47;5124038;28;20045;-73
2022/06/15 11:18:06;;;;;;;6.13;1.40;;;;;;;29.85;33.29;99190.31;5111606;28;20471;-76
2022/06/15 11:21:03;;;;;;;3.50;1.08;;;;;;;29.98;32.33;99193.94;5133274;28;20043;-76
2022/06/15 11:23:56;;;;;;;2.63;1.20;;;;;;;28.46;34.72;99180.00;5132029;28;20093;-73
2022/06/15 11:27:03;;;;;;;1.92;1.02;;;;;;;28.48;34.60;99187.84;5132386;28;20035;-75
2022/06/15 11:30:09;;;;;;;4.45;1.23;;;;;;;29.13;34.04;99184.22;5101739;28;20042;-73
2022/06/15 11:33:01;;;;;;;3.92;1.30;;;;;;;30.70;31.83;99170.88;5101779;28;20031;-73
2022/06/15 11:36:25;;;;;;;2.67;1.33;;;;;;;29.99;33.10;99174.81;5128938;28;20058;-75
2022/06/15 11:39:15;;;;;;;4.68;1.23;;;;;;;29.98;31.78;99175.03;5129979;27;20054;-71
2022/06/15 11:42:00;;;;;;;3.22;1.40;;;;;;;29.74;32.96;99174.84;5136501;27;20039;-71
2022/06/15 11:44:45;;;;;;;2.42;1.25;;;;;;;29.48;32.84;99182.94;5136433;27;20499;-71
2022/06/15 11:48:11;;;;;;;3.90;1.60;;;;;;;30.03;30.97;99166.28;5120046;27;20478;-69
2022/06/15 11:51:26;;;;;;;2.17;1.10;;;;;;;30.48;31.20;99174.09;5118052;27;20051;-68
2022/06/15 11:54:30;;;;;;;2.03;1.10;;;;;;;30.23;30.94;99176.88;5105712;27;20449;-72
2022/06/15 11:57:32;;;;;;;3.75;1.23;;;;;;;30.83;30.24;99172.59;5135344;27;20039;-72
2022/06/15 12:00:34;;;;;;;2.25;1.42;;;;;;;29.06;32.35;99180.75;5123044;27;20066;-70
2022/06/15 12:03:45;;;;;;;2.90;1.20;;;;;;;29.67;31.66;99168.69;5119501;27;20043;-69
2022/06/15 12:06:41;;;;;;;;;;;;;;;28.16;34.59;99167.84;5088133;27;20386;-71
2022/06/15 12:09:44;;;;;;;1.98;1.23;;;;;;;29.32;32.44;99165.44;5113854;27;20313;-74
2022/06/15 12:12:41;;;;;;;3.47;1.17;;;;;;;30.69;30.66;99158.44;5134221;27;20141;-70
2022/06/15 12:15:34;;;;;;;2.47;1.10;;;;;;;31.11;29.52;99151.41;5135707;27;20031;-71
2022/06/15 12:18:42;;;;;;;3.28;1.55;;;;;;;29.99;31.14;99157.78;5137778;27;20649;-72
2022/06/15 12:21:53;;;;;;;4.28;1.10;;;;;;;30.26;31.64;99151.31;5109366;27;20401;-73
2022/06/15 12:24:57;;;;;;;3.53;1.40;;;;;;;30.00;31.27;99159.44;5101051;27;20043;-73
2022/06/15 12:27:52;;;;;;;2.78;1.42;;;;;;;30.51;30.53;99153.88;5135350;27;20047;-70
2022/06/15 12:30:59;;;;;;;3.80;1.30;;;;;;;30.24;30.93;99156.94;5124812;27;20039;-71
2022/06/15 12:33:51;;;;;;;4.95;1.35;;;;;;;31.08;29.98;99139.19;5131511;27;20027;-68
2022/06/15 12:37:00;;;;;;;2.78;1.15;;;;;;;30.02;32.03;99145.69;5133770;27;20035;-69
2022/06/15 12:40:19;;;;;;;1.67;1.10;;;;;;;28.86;33.76;99154.72;5134525;27;20039;-69
2022/06/15 12:43:07;;;;;;;3.10;1.10;;;;;;;29.60;32.61;99148.00;5089681;27;20098;-67
2022/06/15 12:46:16;;;;;;;4.40;1.38;;;;;;;28.95;32.94;99152.59;5128185;27;20039;-71
2022/06/15 12:49:38;;;;;;;3.88;1.17;;;;;;;29.85;31.28;99149.81;5128683;27;20035;-68
2022/06/15 12:52:36;;;;;;;3.25;1.30;;;;;;;30.76;30.34;99139.44;5124416;27;20043;-71
2022/06/15 12:55:36;;;;;;;5.78;1.38;;;;;;;30.08;31.50;99137.53;5102759;27;20047;-72
2022/06/15 12:58:30;;;;;;;2.97;1.00;;;;;;;30.10;31.56;99146.25;5134498;27;20405;-72
2022/06/15 13:01:25;;;;;;;7.72;2.28;;;;;;;30.96;30.60;99139.16;5126621;27;20119;-69
2022/06/15 13:04:10;;;;;;;4.05;1.20;;;;;;;30.95;30.05;99137.50;5095282;27;20051;-70
2022/06/15 13:07:19;;;;;;;1.92;1.02;;;;;;;30.03;31.15;99136.56;5133699;27;20047;-70
2022/06/15 13:10:07;;;;;;;2.83;1.40;;;;;;;30.39;31.18;99134.91;5103580;27;20043;-70
2022/06/15 13:12:58;;;;;;;3.83;1.20;;;;;;;30.37;31.44;99137.03;5098306;27;20043;-71
2022/06/15 13:16:07;;;;;;;7.07;1.50;;;;;;;29.81;32.02;99126.19;5124585;27;20453;-71
2022/06/15 13:18:54;;;;;;;2.08;1.10;;;;;;;30.28;32.07;99123.00;5106665;27;20069;-70
2022/06/15 13:22:21;;;;;;;3.83;1.15;;;;;;;29.90;31.50;99138.34;5120798;27;20031;-72
2022/06/15 13:25:19;;;;;;;6.18;1.30;;;;;;;30.61;31.28;99126.31;5100319;27;20178;-70
2022/06/15 13:28:05;;;;;;;3.53;1.30;;;;;;;30.18;31.91;99131.59;5118248;27;20047;-71
2022/06/15 13:31:10;;;;;;;2.90;1.10;;;;;;;30.80;30.89;99119.00;5116125;27;20107;-72
2022/06/15 13:33:57;;;;;;;5.15;1.00;;;;;;;31.67;29.95;99115.97;5102385;27;20043;-71
2022/06/15 13:37:02;;;;;;;1.42;1.05;;;;;;;30.43;31.04;99114.50;5118459;27;20043;-71
2022/06/15 13:40:00;;;;;;;2.00;1.20;;;;;;;29.92;32.23;99116.56;5123342;27;20092;-72
2022/06/15 13:42:45;;;;;;;2.97;1.10;;;;;;;30.18;31.43;99125.41;5133500;27;20039;-72